createdAt,value
2022-08-26T00:01:14.094Z,19.75
2022-08-26T00:04:17.149Z,19.75
2022-08-26T00:07:19.788Z,19.71
2022-08-26T00:10:23.675Z,19.73
2022-08-26T00:13:28.524Z,19.70
2022-08-26T00:16:32.081Z,19.71
2022-08-26T00:19:34.600Z,19.65
2022-08-26T00:22:37.862Z,19.68
2022-08-26T00:25:42.478Z,19.71
2022-08-26T00:28:45.618Z,19.73
2022-08-26T00:31:48.102Z,19.75
2022-08-26T00:34:51.190Z,19.73
2022-08-26T00:37:54.373Z,19.68
2022-08-26T00:40:58.144Z,19.61
2022-08-26T00:44:01.305Z,19.53
2022-08-26T00:47:06.576Z,19.42
2022-08-26T00:50:12.674Z,19.46
2022-08-26T00:53:25.876Z,19.50
2022-08-26T00:56:38.888Z,19.52
2022-08-26T00:59:42.408Z,19.61
2022-08-26T01:02:47.539Z,19.56
2022-08-26T01:05:52.373Z,19.54
2022-08-26T01:08:57.038Z,19.48
2022-08-26T01:12:02.374Z,19.54
2022-08-26T01:15:06.598Z,19.53
2022-08-26T01:18:09.909Z,19.60
2022-08-26T01:21:27.759Z,19.55
2022-08-26T01:24:32.373Z,19.43
2022-08-26T01:27:35.455Z,19.40
2022-08-26T01:30:39.829Z,19.40
2022-08-26T01:33:53.340Z,19.31
2022-08-26T01:37:02.200Z,19.28
2022-08-26T01:40:07.256Z,19.27
2022-08-26T01:43:16.488Z,19.22
2022-08-26T01:46:20.353Z,19.17
2022-08-26T01:49:24.819Z,19.14
2022-08-26T01:52:30.568Z,19.05
2022-08-26T01:55:35.041Z,19.14
2022-08-26T01:58:47.584Z,19.10
2022-08-26T02:01:51.440Z,18.99
2022-08-26T02:05:02.326Z,18.95
2022-08-26T02:08:05.821Z,18.90
2022-08-26T02:11:08.622Z,18.77
2022-08-26T02:14:23.828Z,18.79
2022-08-26T02:17:34.493Z,18.79
2022-08-26T02:20:37.531Z,18.72
2022-08-26T02:23:40.658Z,18.58
2022-08-26T02:26:45.054Z,18.56
2022-08-26T02:29:52.085Z,18.61
2022-08-26T02:32:54.935Z,18.66
2022-08-26T02:35:59.362Z,18.73
2022-08-26T02:39:01.885Z,18.75
2022-08-26T02:42:05.510Z,18.71
2022-08-26T02:45:09.710Z,18.67
2022-08-26T02:48:16.155Z,18.66
2022-08-26T02:51:21.315Z,18.69
2022-08-26T02:54:24.813Z,18.71
2022-08-26T02:57:27.496Z,18.77
2022-08-26T03:00:31.450Z,18.74
2022-08-26T03:03:34.126Z,18.83
2022-08-26T03:06:37.587Z,18.80
2022-08-26T03:09:40.432Z,18.71
2022-08-26T03:12:47.327Z,18.81
2022-08-26T03:15:50.740Z,18.73
2022-08-26T03:18:53.894Z,18.66
2022-08-26T03:21:57.758Z,18.57
2022-08-26T03:25:02.225Z,18.52
2022-08-26T03:28:05.203Z,18.44
2022-08-26T03:31:10.517Z,18.40
2022-08-26T03:34:13.087Z,18.31
2022-08-26T03:37:16.464Z,18.31
2022-08-26T03:40:20.558Z,18.30
2022-08-26T03:43:26.818Z,18.31
2022-08-26T03:46:31.454Z,18.31
2022-08-26T03:49:35.922Z,18.38
2022-08-26T03:52:43.057Z,18.38
2022-08-26T03:55:47.193Z,18.41
2022-08-26T03:58:54.346Z,18.43
2022-08-26T04:01:58.298Z,18.43
2022-08-26T04:05:01.190Z,18.43
2022-08-26T04:08:06.000Z,18.38
2022-08-26T04:11:08.882Z,18.35
2022-08-26T04:14:20.079Z,18.38
2022-08-26T04:17:25.756Z,18.45
2022-08-26T04:20:28.579Z,18.44
2022-08-26T04:23:31.463Z,18.46
2022-08-26T04:26:50.420Z,18.43
2022-08-26T04:29:55.337Z,18.50
2022-08-26T04:32:58.435Z,18.50
2022-08-26T04:36:02.753Z,18.51
2022-08-26T04:39:07.181Z,18.59
2022-08-26T04:42:10.087Z,18.65
2022-08-26T04:45:12.631Z,18.79
2022-08-26T04:48:16.792Z,18.89
2022-08-26T04:51:20.602Z,18.98
2022-08-26T04:54:23.332Z,19.09
2022-08-26T04:57:27.822Z,19.27
2022-08-26T05:00:30.587Z,19.46
2022-08-26T05:03:33.057Z,19.63
2022-08-26T05:06:37.222Z,19.78
2022-08-26T05:09:40.683Z,19.87
2022-08-26T05:12:43.509Z,19.93
2022-08-26T05:15:47.912Z,20.01
2022-08-26T05:18:53.276Z,20.04
2022-08-26T05:21:56.068Z,20.02
2022-08-26T05:24:59.214Z,20.04
2022-08-26T05:28:01.703Z,20.04
2022-08-26T05:31:23.608Z,20.13
2022-08-26T05:34:30.077Z,20.45
2022-08-26T05:37:33.564Z,20.88
2022-08-26T05:40:40.808Z,21.13
2022-08-26T05:43:44.095Z,21.21
2022-08-26T05:46:46.846Z,21.21
2022-08-26T05:49:51.537Z,21.23
2022-08-26T05:52:54.245Z,21.23
2022-08-26T05:55:58.412Z,21.35
2022-08-26T05:59:02.935Z,21.46
2022-08-26T06:02:07.441Z,21.62
2022-08-26T06:05:10.525Z,21.78
2022-08-26T06:08:19.284Z,21.86
2022-08-26T06:11:27.031Z,22.08
2022-08-26T06:14:30.581Z,22.21
2022-08-26T06:17:33.526Z,22.42
2022-08-26T06:20:38.123Z,22.61
2022-08-26T06:24:01.267Z,22.70
2022-08-26T06:27:05.976Z,22.87
2022-08-26T06:30:09.982Z,23.06
2022-08-26T06:33:13.408Z,23.16
2022-08-26T06:36:20.613Z,23.42
2022-08-26T06:39:23.494Z,23.58
2022-08-26T06:42:26.708Z,23.71
2022-08-26T06:45:29.297Z,23.86
2022-08-26T06:48:34.078Z,24.16
2022-08-26T06:51:39.333Z,24.21
2022-08-26T06:54:44.286Z,24.49
2022-08-26T06:57:46.846Z,24.62
2022-08-26T07:00:49.615Z,24.92
2022-08-26T07:03:57.096Z,25.15
2022-08-26T07:07:00.291Z,25.36
2022-08-26T07:10:02.818Z,25.81
2022-08-26T07:13:06.706Z,26.21
2022-08-26T07:16:12.902Z,26.25
2022-08-26T07:19:30.463Z,26.95
2022-08-26T07:22:33.866Z,26.97
2022-08-26T07:25:41.249Z,28.37
2022-08-26T07:28:46.343Z,28.09
2022-08-26T07:31:49.108Z,28.70
2022-08-26T07:34:51.916Z,30.12
2022-08-26T07:37:57.073Z,30.50
2022-08-26T07:40:59.802Z,31.24
2022-08-26T07:44:03.067Z,31.42
2022-08-26T07:47:24.071Z,31.45
2022-08-26T07:50:48.786Z,32.34
2022-08-26T07:53:52.499Z,32.29
2022-08-26T07:56:56.094Z,33.09
2022-08-26T07:59:59.571Z,33.71
2022-08-26T08:03:03.890Z,33.30
2022-08-26T08:06:06.931Z,33.31
2022-08-26T08:09:09.956Z,32.48
2022-08-26T08:12:14.122Z,32.87
2022-08-26T08:15:20.201Z,31.54
2022-08-26T08:18:23.490Z,32.46
2022-08-26T08:21:27.889Z,34.49
2022-08-26T08:24:35.850Z,34.25
2022-08-26T08:27:40.351Z,33.88
2022-08-26T08:30:43.137Z,35.50
2022-08-26T08:33:46.495Z,34.24
2022-08-26T08:36:50.618Z,35.07
2022-08-26T08:39:56.190Z,35.09
2022-08-26T08:43:05.282Z,35.36
2022-08-26T08:46:13.093Z,34.68
2022-08-26T08:49:16.777Z,36.10
2022-08-26T08:52:33.570Z,36.52
2022-08-26T08:55:46.853Z,36.55
2022-08-26T08:59:17.143Z,36.63
2022-08-26T09:02:43.334Z,36.74
2022-08-26T09:05:48.836Z,35.81
2022-08-26T09:08:52.173Z,37.44
2022-08-26T09:11:56.440Z,36.38
2022-08-26T09:15:07.530Z,36.77
2022-08-26T09:18:29.832Z,36.90
2022-08-26T09:21:33.033Z,37.12
2022-08-26T09:24:42.093Z,37.60
2022-08-26T09:27:53.772Z,37.23
2022-08-26T09:31:11.526Z,36.53
2022-08-26T09:34:19.093Z,36.81
2022-08-26T09:40:59.035Z,37.65
2022-08-26T09:44:14.734Z,37.88
2022-08-26T09:47:23.579Z,39.27
2022-08-26T09:50:31.122Z,37.56
2022-08-26T09:53:39.981Z,39.46
2022-08-26T09:56:46.485Z,39.26
2022-08-26T09:59:49.782Z,39.51
2022-08-26T10:02:54.791Z,38.32
2022-08-26T10:06:03.466Z,39.38
2022-08-26T10:09:09.864Z,39.31
2022-08-26T10:12:17.728Z,39.19
2022-08-26T10:15:21.355Z,38.84
2022-08-26T10:18:33.774Z,39.15
2022-08-26T10:21:56.800Z,39.17
2022-08-26T10:25:03.967Z,37.41
2022-08-26T10:28:20.626Z,39.32
2022-08-26T10:31:40.639Z,39.46
2022-08-26T10:34:43.889Z,39.23
2022-08-26T10:37:57.844Z,40.98
2022-08-26T10:41:09.991Z,40.75
2022-08-26T10:44:15.632Z,39.67
2022-08-26T10:47:23.013Z,40.26
2022-08-26T10:50:31.219Z,40.32
2022-08-26T10:53:55.914Z,39.47
2022-08-26T10:57:14.241Z,40.42
2022-08-26T11:00:50.608Z,40.38
2022-08-26T11:04:00.528Z,40.92
2022-08-26T11:07:34.262Z,39.56
2022-08-26T11:10:43.191Z,36.91
2022-08-26T11:14:00.299Z,37.08
2022-08-26T11:17:03.733Z,38.42
2022-08-26T11:20:13.207Z,39.15
2022-08-26T11:23:31.158Z,39.23
2022-08-26T11:26:37.665Z,39.85
2022-08-26T11:30:04.260Z,39.36
2022-08-26T11:33:08.222Z,40.27
2022-08-26T11:36:46.509Z,40.57
2022-08-26T11:39:54.949Z,39.15
2022-08-26T11:43:13.477Z,39.72
2022-08-26T11:46:25.200Z,39.12
2022-08-26T11:49:29.024Z,39.87
2022-08-26T11:52:31.542Z,38.32
2022-08-26T11:55:37.305Z,36.67
2022-08-26T11:58:44.525Z,35.43
2022-08-26T12:01:50.905Z,34.51
2022-08-26T12:04:54.822Z,34.58
2022-08-26T12:07:59.868Z,35.35
2022-08-26T12:11:06.383Z,34.42
2022-08-26T12:14:17.819Z,33.57
2022-08-26T12:17:27.729Z,33.22
2022-08-26T12:20:48.629Z,32.95
2022-08-26T12:23:54.692Z,33.48
2022-08-26T12:27:11.261Z,32.99
2022-08-26T12:30:23.979Z,32.62
2022-08-26T12:33:26.731Z,32.28
2022-08-26T12:36:33.916Z,32.07
2022-08-26T12:39:39.460Z,31.98
2022-08-26T12:42:43.606Z,32.48
2022-08-26T12:45:57.630Z,32.84
2022-08-26T12:49:04.082Z,32.50
2022-08-26T12:52:08.537Z,32.48
2022-08-26T12:55:32.006Z,32.57
2022-08-26T12:58:39.144Z,32.38
2022-08-26T13:01:43.892Z,32.07
2022-08-26T13:04:46.731Z,31.87
2022-08-26T13:08:10.719Z,31.79
2022-08-26T13:11:21.135Z,31.90
2022-08-26T13:14:24.742Z,31.94
2022-08-26T13:17:28.510Z,32.07
2022-08-26T13:20:32.326Z,31.77
2022-08-26T13:23:38.369Z,31.61
2022-08-26T13:26:45.513Z,31.66
2022-08-26T13:29:48.219Z,31.78
2022-08-26T13:32:54.431Z,31.84
2022-08-26T13:35:57.541Z,31.74
2022-08-26T13:39:00.767Z,31.69
2022-08-26T13:42:03.372Z,31.63
2022-08-26T13:45:06.765Z,31.47
2022-08-26T13:48:09.523Z,31.39
2022-08-26T13:51:12.860Z,31.13
2022-08-26T13:54:15.478Z,30.97
2022-08-26T13:57:18.347Z,30.92
2022-08-26T14:00:21.196Z,30.74
2022-08-26T14:03:24.870Z,30.62
2022-08-26T14:06:27.478Z,30.64
2022-08-26T14:09:30.293Z,30.80
2022-08-26T14:12:33.108Z,30.94
2022-08-26T14:15:37.421Z,31.05
2022-08-26T14:18:42.544Z,31.10
2022-08-26T14:21:47.208Z,31.11
2022-08-26T14:24:50.577Z,31.00
2022-08-26T14:27:54.365Z,31.04
2022-08-26T14:30:58.337Z,30.90
2022-08-26T14:34:06.275Z,31.00
2022-08-26T14:37:11.465Z,31.06
2022-08-26T14:40:18.809Z,31.12
2022-08-26T14:43:21.949Z,31.09
2022-08-26T14:46:29.090Z,31.13
2022-08-26T14:49:32.838Z,31.08
2022-08-26T14:52:55.637Z,30.97
2022-08-26T14:55:58.213Z,31.01
2022-08-26T14:59:01.427Z,31.13
2022-08-26T15:02:05.184Z,31.06
2022-08-26T15:05:08.752Z,31.03
2022-08-26T15:08:12.339Z,30.94
2022-08-26T15:11:18.347Z,30.99
2022-08-26T15:14:21.517Z,31.00
2022-08-26T15:17:24.415Z,30.99
2022-08-26T15:20:27.621Z,30.97
2022-08-26T15:23:30.474Z,30.85
2022-08-26T15:26:34.918Z,30.76
2022-08-26T15:29:37.753Z,30.75
2022-08-26T15:32:40.599Z,30.67
2022-08-26T15:35:43.737Z,30.72
2022-08-26T15:38:46.328Z,30.74
2022-08-26T15:41:49.368Z,30.59
2022-08-26T15:44:52.472Z,30.55
2022-08-26T15:48:00.797Z,30.41
2022-08-26T15:51:04.512Z,30.47
2022-08-26T15:54:07.472Z,30.50
2022-08-26T15:57:15.332Z,30.37
2022-08-26T16:00:20.102Z,30.33
2022-08-26T16:03:23.032Z,30.22
2022-08-26T16:06:29.100Z,30.26
2022-08-26T16:09:32.011Z,30.29
2022-08-26T16:12:34.562Z,30.25
2022-08-26T16:15:38.201Z,30.16
2022-08-26T16:18:40.970Z,30.11
2022-08-26T16:21:44.791Z,30.07
2022-08-26T16:24:47.319Z,30.08
2022-08-26T16:27:51.888Z,30.01
2022-08-26T16:30:54.473Z,29.91
2022-08-26T16:33:57.351Z,29.86
2022-08-26T16:37:00.637Z,29.78
2022-08-26T16:40:05.175Z,29.72
2022-08-26T16:43:07.822Z,29.68
2022-08-26T16:46:16.331Z,29.61
2022-08-26T16:49:19.205Z,29.55
2022-08-26T16:52:22.054Z,29.55
2022-08-26T16:55:27.373Z,29.42
2022-08-26T16:58:30.395Z,29.43
2022-08-26T17:01:33.051Z,29.29
2022-08-26T17:04:36.382Z,29.23
2022-08-26T17:07:39.595Z,29.20
2022-08-26T17:13:45.983Z,29.09
2022-08-26T17:16:51.499Z,28.97
2022-08-26T17:19:54.061Z,28.83
2022-08-26T17:22:56.937Z,28.68
2022-08-26T17:25:59.527Z,28.52
2022-08-26T17:29:02.482Z,28.36
2022-08-26T17:32:05.064Z,28.22
2022-08-26T17:35:08.654Z,28.08
2022-08-26T17:38:14.502Z,27.95
2022-08-26T17:41:17.371Z,27.83
2022-08-26T17:44:19.843Z,27.72
2022-08-26T17:47:22.610Z,27.59
2022-08-26T17:50:25.157Z,27.47
2022-08-26T17:53:27.998Z,27.32
2022-08-26T17:56:30.723Z,27.18
2022-08-26T17:59:33.595Z,27.03
2022-08-26T18:02:37.834Z,26.90
2022-08-26T18:05:41.348Z,26.78
2022-08-26T18:08:44.954Z,26.67
2022-08-26T18:11:47.807Z,26.55
2022-08-26T18:14:50.327Z,26.42
2022-08-26T18:17:53.476Z,26.31
2022-08-26T18:21:01.301Z,26.20
2022-08-26T18:24:05.088Z,26.12
2022-08-26T18:27:07.677Z,26.00
2022-08-26T18:30:16.951Z,26.01
2022-08-26T18:33:21.498Z,25.89
2022-08-26T18:36:28.040Z,25.79
2022-08-26T18:39:30.589Z,25.67
2022-08-26T18:42:33.788Z,25.53
2022-08-26T18:45:36.303Z,25.41
2022-08-26T18:48:40.533Z,25.29
2022-08-26T18:51:43.822Z,25.17
2022-08-26T18:54:46.754Z,25.10
2022-08-26T18:57:50.787Z,25.07
2022-08-26T19:00:53.551Z,24.95
2022-08-26T19:03:57.535Z,24.88
2022-08-26T19:07:00.308Z,24.74
2022-08-26T19:10:05.308Z,24.65
2022-08-26T19:13:09.552Z,24.63
2022-08-26T19:16:24.837Z,24.60
2022-08-26T19:19:28.294Z,24.52
2022-08-26T19:22:30.772Z,24.48
2022-08-26T19:25:33.519Z,24.43
2022-08-26T19:28:37.026Z,24.36
2022-08-26T19:31:39.924Z,24.05
2022-08-26T19:34:44.512Z,24.07
2022-08-26T19:37:48.051Z,24.06
2022-08-26T19:40:50.531Z,24.09
2022-08-26T19:43:53.381Z,24.15
2022-08-26T19:47:03.590Z,24.15
2022-08-26T19:50:10.083Z,24.20
2022-08-26T19:53:12.688Z,24.20
2022-08-26T19:56:15.856Z,24.19
2022-08-26T19:59:18.690Z,24.15
2022-08-26T20:02:21.520Z,24.14
2022-08-26T20:05:26.021Z,24.08
2022-08-26T20:08:28.780Z,24.02
2022-08-26T20:11:32.585Z,24.01
2022-08-26T20:14:35.840Z,23.96
2022-08-26T20:17:38.962Z,23.99
2022-08-26T20:21:00.388Z,23.94
2022-08-26T20:24:12.805Z,23.88
2022-08-26T20:27:15.634Z,23.75
2022-08-26T20:30:18.535Z,23.83
2022-08-26T20:33:21.463Z,23.93
2022-08-26T20:36:28.920Z,23.97
2022-08-26T20:39:31.486Z,24.10
2022-08-26T20:42:34.573Z,24.20
2022-08-26T20:45:37.230Z,24.20
2022-08-26T20:48:40.114Z,24.32
2022-08-26T20:51:45.723Z,24.32
2022-08-26T20:54:48.513Z,24.29
2022-08-26T20:57:52.029Z,24.27
2022-08-26T21:00:55.129Z,24.20
2022-08-26T21:03:57.691Z,24.16
2022-08-26T21:07:00.508Z,24.17
2022-08-26T21:10:03.246Z,24.15
2022-08-26T21:13:06.883Z,24.13
2022-08-26T21:16:12.094Z,24.07
2022-08-26T21:19:18.092Z,23.97
2022-08-26T21:22:20.721Z,23.95
2022-08-26T21:25:23.543Z,23.85
2022-08-26T21:28:26.062Z,23.82
2022-08-26T21:31:29.860Z,23.70
2022-08-26T21:34:32.791Z,23.63
2022-08-26T21:37:35.725Z,23.56
2022-08-26T21:40:40.060Z,23.50
2022-08-26T21:43:42.985Z,23.42
2022-08-26T21:46:46.345Z,23.34
2022-08-26T21:49:49.178Z,23.32
2022-08-26T21:52:51.703Z,23.29
2022-08-26T21:55:54.479Z,23.21
2022-08-26T21:58:57.842Z,23.07
2022-08-26T22:02:00.998Z,23.13
2022-08-26T22:05:04.320Z,23.00
2022-08-26T22:08:06.906Z,23.01
2022-08-26T22:11:10.499Z,23.01
2022-08-26T22:14:13.431Z,22.97
2022-08-26T22:17:17.100Z,22.96
2022-08-26T22:20:19.682Z,22.89
2022-08-26T22:23:23.166Z,22.84
2022-08-26T22:26:29.204Z,22.81
2022-08-26T22:29:33.230Z,22.83
2022-08-26T22:32:35.823Z,22.82
2022-08-26T22:35:43.856Z,22.73
2022-08-26T22:38:47.293Z,22.80
2022-08-26T22:41:50.250Z,22.74
2022-08-26T22:44:52.779Z,22.71
2022-08-26T22:47:55.915Z,22.69
2022-08-26T22:51:00.263Z,22.66
2022-08-26T22:54:03.368Z,22.64
2022-08-26T22:57:06.019Z,22.57
2022-08-26T23:00:12.429Z,22.53
2022-08-26T23:03:16.817Z,22.51
2022-08-26T23:06:19.704Z,22.50
2022-08-26T23:09:22.369Z,22.44
2022-08-26T23:12:25.234Z,22.44
2022-08-26T23:15:27.769Z,22.41
2022-08-26T23:18:30.862Z,22.44
2022-08-26T23:21:33.425Z,22.39
2022-08-26T23:24:36.311Z,22.39
2022-08-26T23:27:41.360Z,22.38
2022-08-26T23:30:44.139Z,22.36
2022-08-26T23:34:05.194Z,22.30
2022-08-26T23:37:08.868Z,22.21
2022-08-26T23:40:15.884Z,22.16
2022-08-26T23:43:18.785Z,22.17
2022-08-26T23:46:21.655Z,22.15
2022-08-26T23:49:26.844Z,22.09
2022-08-26T23:52:31.257Z,22.13
2022-08-26T23:55:35.917Z,22.10
2022-08-26T23:58:38.473Z,22.09
